createdAt,value
2022-10-24T00:01:11.887Z,19.31
2022-10-24T00:03:38.954Z,19.43
2022-10-24T00:06:06.679Z,19.34
2022-10-24T00:08:34.112Z,19.32
2022-10-24T00:11:01.070Z,19.33
2022-10-24T00:13:27.730Z,19.26
2022-10-24T00:15:54.498Z,19.35
2022-10-24T00:18:21.417Z,19.27
2022-10-24T00:20:48.090Z,19.22
2022-10-24T00:23:14.837Z,19.16
2022-10-24T00:25:41.895Z,19.12
2022-10-24T00:28:08.573Z,19.12
2022-10-24T00:30:35.234Z,19.25
2022-10-24T00:33:02.283Z,19.18
2022-10-24T00:35:28.997Z,19.19
2022-10-24T00:37:55.695Z,19.28
2022-10-24T00:40:22.861Z,19.25
2022-10-24T00:42:49.685Z,19.05
2022-10-24T00:45:38.165Z,19.12
2022-10-24T00:48:10.421Z,19.17
2022-10-24T00:50:37.059Z,19.05
2022-10-24T00:53:03.793Z,18.98
2022-10-24T00:55:30.956Z,19.00
2022-10-24T00:58:01.644Z,19.20
2022-10-24T01:00:29.839Z,19.07
2022-10-24T01:02:57.068Z,18.92
2022-10-24T01:05:24.236Z,19.02
2022-10-24T01:08:06.521Z,19.09
2022-10-24T01:10:38.216Z,19.02
2022-10-24T01:13:08.169Z,18.98
2022-10-24T01:15:53.857Z,18.91
2022-10-24T01:18:23.914Z,18.84
2022-10-24T01:20:56.701Z,19.04
2022-10-24T01:23:45.679Z,18.96
2022-10-24T01:26:14.864Z,19.05
2022-10-24T01:29:00.399Z,18.87
2022-10-24T01:31:34.567Z,18.89
2022-10-24T01:34:04.411Z,18.82
2022-10-24T01:36:39.106Z,18.88
2022-10-24T01:39:08.101Z,18.79
2022-10-24T01:41:35.034Z,19.09
2022-10-24T01:44:07.633Z,18.78
2022-10-24T01:46:36.004Z,18.84
2022-10-24T01:49:04.521Z,18.87
2022-10-24T01:51:31.202Z,18.86
2022-10-24T01:53:57.853Z,18.91
2022-10-24T01:56:27.782Z,18.97
2022-10-24T01:59:03.654Z,18.91
2022-10-24T02:01:30.611Z,18.87
2022-10-24T02:03:58.190Z,18.89
2022-10-24T02:06:27.479Z,18.93
2022-10-24T02:08:58.622Z,18.81
2022-10-24T02:11:25.797Z,18.77
2022-10-24T02:13:54.177Z,18.93
2022-10-24T02:16:21.439Z,18.88
2022-10-24T02:18:49.610Z,18.94
2022-10-24T02:21:25.169Z,18.93
2022-10-24T02:23:56.238Z,18.87
2022-10-24T02:26:44.087Z,18.67
2022-10-24T02:29:12.311Z,18.76
2022-10-24T02:31:39.952Z,18.48
2022-10-24T02:34:07.682Z,18.58
2022-10-24T02:36:34.695Z,18.76
2022-10-24T02:39:01.378Z,18.78
2022-10-24T02:41:29.308Z,18.67
2022-10-24T02:43:56.270Z,18.70
2022-10-24T02:46:23.013Z,18.66
2022-10-24T02:48:50.547Z,18.77
2022-10-24T02:51:18.212Z,18.70
2022-10-24T02:53:44.872Z,18.72
2022-10-24T02:56:11.516Z,18.61
2022-10-24T02:58:38.488Z,18.77
2022-10-24T03:01:05.279Z,18.64
2022-10-24T03:03:32.057Z,18.75
2022-10-24T03:05:58.982Z,18.58
2022-10-24T03:08:25.627Z,18.73
2022-10-24T03:10:52.261Z,18.71
2022-10-24T03:13:19.178Z,18.77
2022-10-24T03:18:17.395Z,18.73
2022-10-24T03:20:44.307Z,18.80
2022-10-24T03:23:10.937Z,18.73
2022-10-24T03:25:37.656Z,18.59
2022-10-24T03:28:04.724Z,18.40
2022-10-24T03:30:31.397Z,18.38
2022-10-24T03:32:58.148Z,18.48
2022-10-24T03:35:25.083Z,18.46
2022-10-24T03:37:51.718Z,18.54
2022-10-24T03:40:18.446Z,18.50
2022-10-24T03:42:45.622Z,18.54
2022-10-24T03:45:12.520Z,18.48
2022-10-24T03:47:39.206Z,18.42
2022-10-24T03:50:06.506Z,18.50
2022-10-24T03:52:33.179Z,18.48
2022-10-24T03:54:59.805Z,18.34
2022-10-24T03:57:26.792Z,18.40
2022-10-24T03:59:53.464Z,18.28
2022-10-24T04:02:20.175Z,18.36
2022-10-24T04:04:47.142Z,18.53
2022-10-24T04:07:13.799Z,18.38
2022-10-24T04:09:40.486Z,18.26
2022-10-24T04:12:07.576Z,18.51
2022-10-24T04:14:34.212Z,18.52
2022-10-24T04:17:00.895Z,18.50
2022-10-24T04:19:27.911Z,18.56
2022-10-24T04:21:54.795Z,18.51
2022-10-24T04:24:21.471Z,18.35
2022-10-24T04:26:48.384Z,18.40
2022-10-24T04:29:15.076Z,18.45
2022-10-24T04:31:41.755Z,18.33
2022-10-24T04:34:08.770Z,18.26
2022-10-24T04:36:35.434Z,18.40
2022-10-24T04:39:02.212Z,18.32
2022-10-24T04:41:29.139Z,18.24
2022-10-24T04:43:55.807Z,18.30
2022-10-24T04:46:22.601Z,18.44
2022-10-24T04:48:52.062Z,18.20
2022-10-24T04:51:21.637Z,17.86
2022-10-24T04:53:49.840Z,18.29
2022-10-24T04:56:17.026Z,18.26
2022-10-24T04:58:44.713Z,18.43
2022-10-24T05:01:11.961Z,18.28
2022-10-24T05:03:38.748Z,18.26
2022-10-24T05:06:05.631Z,18.34
2022-10-24T05:08:32.544Z,18.34
2022-10-24T05:10:59.248Z,18.34
2022-10-24T05:13:26.195Z,18.27
2022-10-24T05:15:53.255Z,18.34
2022-10-24T05:18:19.922Z,18.30
2022-10-24T05:20:46.732Z,18.04
2022-10-24T05:23:13.651Z,17.95
2022-10-24T05:25:40.298Z,18.09
2022-10-24T05:28:06.954Z,18.23
2022-10-24T05:30:33.908Z,18.16
2022-10-24T05:33:00.534Z,18.22
2022-10-24T05:35:27.178Z,18.32
2022-10-24T05:37:54.110Z,18.39
2022-10-24T05:40:20.763Z,18.54
2022-10-24T05:42:48.762Z,18.31
2022-10-24T05:45:15.833Z,18.42
2022-10-24T05:47:42.747Z,18.27
2022-10-24T05:50:09.872Z,18.13
2022-10-24T05:52:36.970Z,18.17
2022-10-24T05:55:08.076Z,17.81
2022-10-24T05:57:35.523Z,18.12
2022-10-24T06:00:02.979Z,18.35
2022-10-24T06:02:38.599Z,18.45
2022-10-24T06:05:05.984Z,18.50
2022-10-24T06:07:32.667Z,18.27
2022-10-24T06:09:59.478Z,18.39
2022-10-24T06:12:26.592Z,18.43
2022-10-24T06:14:57.255Z,18.36
2022-10-24T06:17:23.912Z,18.35
2022-10-24T06:19:51.143Z,18.32
2022-10-24T06:22:18.408Z,18.47
2022-10-24T06:24:45.233Z,18.61
2022-10-24T06:27:12.829Z,18.43
2022-10-24T06:29:39.579Z,18.49
2022-10-24T06:32:06.317Z,18.58
2022-10-24T06:34:40.947Z,18.43
2022-10-24T06:37:10.681Z,18.51
2022-10-24T06:39:40.024Z,18.53
2022-10-24T06:42:06.674Z,18.46
2022-10-24T06:44:33.309Z,18.32
2022-10-24T06:47:02.471Z,18.11
2022-10-24T06:49:29.219Z,18.24
2022-10-24T06:51:57.431Z,18.09
2022-10-24T06:54:26.525Z,18.03
2022-10-24T06:56:56.014Z,18.18
2022-10-24T06:59:22.663Z,18.07
2022-10-24T07:01:51.956Z,18.04
2022-10-24T07:04:18.792Z,18.15
2022-10-24T07:06:48.606Z,18.07
2022-10-24T07:09:15.811Z,18.15
2022-10-24T07:11:45.806Z,18.05
2022-10-24T07:14:14.768Z,17.98
2022-10-24T07:16:41.689Z,17.80
2022-10-24T07:19:11.116Z,18.17
2022-10-24T07:21:37.912Z,18.29
2022-10-24T07:24:05.134Z,18.18
2022-10-24T07:26:32.017Z,18.27
2022-10-24T07:31:34.075Z,18.36
2022-10-24T07:34:01.523Z,18.28
2022-10-24T07:36:30.031Z,18.24
2022-10-24T07:38:57.357Z,17.95
2022-10-24T07:41:25.290Z,18.19
2022-10-24T07:43:52.243Z,18.44
2022-10-24T07:46:19.224Z,18.48
2022-10-24T07:48:45.886Z,18.48
2022-10-24T07:51:13.179Z,18.33
2022-10-24T07:53:40.475Z,18.50
2022-10-24T07:56:09.506Z,18.22
2022-10-24T07:58:36.670Z,18.40
2022-10-24T08:01:08.052Z,18.29
2022-10-24T08:03:35.034Z,18.33
2022-10-24T08:06:04.525Z,18.39
2022-10-24T08:08:36.913Z,18.48
2022-10-24T08:11:08.520Z,18.53
2022-10-24T08:13:35.266Z,18.35
2022-10-24T08:16:02.929Z,18.57
2022-10-24T08:18:30.457Z,18.41
2022-10-24T08:20:58.693Z,18.59
2022-10-24T08:23:25.718Z,18.42
2022-10-24T08:25:52.914Z,18.56
2022-10-24T08:28:19.661Z,18.54
2022-10-24T08:30:54.621Z,18.54
2022-10-24T08:33:22.626Z,18.61
2022-10-24T08:35:49.260Z,18.54
2022-10-24T08:38:15.943Z,18.50
2022-10-24T08:40:42.958Z,18.50
2022-10-24T08:43:10.302Z,18.16
2022-10-24T08:45:43.723Z,18.36
2022-10-24T08:48:13.607Z,18.39
2022-10-24T08:50:41.551Z,18.34
2022-10-24T08:53:11.306Z,18.19
2022-10-24T08:55:48.775Z,18.21
2022-10-24T08:58:16.899Z,18.10
2022-10-24T09:00:44.928Z,18.18
2022-10-24T09:03:43.852Z,18.25
2022-10-24T09:06:24.640Z,18.03
2022-10-24T09:08:55.504Z,18.38
2022-10-24T09:11:48.987Z,18.29
2022-10-24T09:14:16.788Z,18.24
2022-10-24T09:16:44.406Z,18.50
2022-10-24T09:19:18.989Z,18.40
2022-10-24T09:21:45.975Z,18.47
2022-10-24T09:24:17.748Z,18.36
2022-10-24T09:26:45.814Z,18.50
2022-10-24T09:29:12.773Z,18.39
2022-10-24T09:31:39.476Z,18.40
2022-10-24T09:34:06.743Z,18.42
2022-10-24T09:36:33.709Z,18.45
2022-10-24T09:39:14.401Z,18.53
2022-10-24T09:41:41.301Z,18.44
2022-10-24T09:44:09.070Z,18.45
2022-10-24T09:46:36.421Z,18.54
2022-10-24T09:49:12.561Z,18.45
2022-10-24T09:51:42.844Z,18.37
2022-10-24T09:54:09.751Z,18.49
2022-10-24T09:56:41.358Z,18.66
2022-10-24T09:59:16.857Z,18.76
2022-10-24T10:01:45.622Z,18.66
2022-10-24T10:04:17.306Z,18.71
2022-10-24T10:06:45.353Z,18.80
2022-10-24T10:09:13.994Z,18.71
2022-10-24T10:11:44.767Z,18.58
2022-10-24T10:14:20.792Z,18.52
2022-10-24T10:16:48.812Z,18.54
2022-10-24T10:19:15.549Z,18.58
2022-10-24T10:21:57.861Z,18.68
2022-10-24T10:24:26.263Z,18.77
2022-10-24T10:26:53.204Z,18.83
2022-10-24T10:29:21.551Z,18.88
2022-10-24T10:31:58.632Z,18.96
2022-10-24T10:34:43.227Z,18.83
2022-10-24T10:37:25.114Z,18.99
2022-10-24T10:40:11.463Z,18.91
2022-10-24T10:42:41.759Z,18.97
2022-10-24T10:45:13.743Z,19.19
2022-10-24T10:47:47.241Z,19.19
2022-10-24T10:50:27.158Z,19.12
2022-10-24T10:52:55.737Z,19.03
2022-10-24T10:55:22.737Z,19.08
2022-10-24T10:57:55.020Z,19.11
2022-10-24T11:00:34.373Z,19.31
2022-10-24T11:03:16.262Z,19.31
2022-10-24T11:05:47.354Z,19.31
2022-10-24T11:08:17.177Z,19.08
2022-10-24T11:11:06.600Z,19.11
2022-10-24T11:13:34.934Z,19.23
2022-10-24T11:16:02.623Z,19.15
2022-10-24T11:18:36.448Z,19.34
2022-10-24T11:21:07.588Z,19.44
2022-10-24T11:23:34.345Z,19.35
2022-10-24T11:26:03.281Z,19.36
2022-10-24T11:28:39.891Z,19.47
2022-10-24T11:31:06.524Z,19.49
2022-10-24T11:33:40.138Z,19.54
2022-10-24T11:36:33.292Z,19.60
2022-10-24T11:39:09.706Z,19.39
2022-10-24T11:41:51.979Z,19.24
2022-10-24T11:44:28.732Z,19.45
2022-10-24T11:47:15.689Z,19.46
2022-10-24T11:49:43.846Z,19.64
2022-10-24T11:52:36.995Z,19.59
2022-10-24T11:55:06.756Z,19.39
2022-10-24T11:57:39.271Z,19.52
2022-10-24T12:00:06.615Z,19.45
2022-10-24T12:02:38.241Z,19.72
2022-10-24T12:05:37.646Z,19.24
2022-10-24T12:08:18.173Z,19.63
2022-10-24T12:11:06.020Z,19.46
2022-10-24T12:13:42.933Z,19.52
2022-10-24T12:16:24.680Z,19.54
2022-10-24T12:18:52.902Z,19.24
2022-10-24T12:21:26.991Z,19.48
2022-10-24T12:23:57.696Z,19.55
2022-10-24T12:26:28.730Z,19.54
2022-10-24T12:28:59.670Z,19.55
2022-10-24T12:31:30.572Z,19.31
2022-10-24T12:34:15.548Z,19.28
2022-10-24T12:37:01.269Z,19.45
2022-10-24T12:39:28.804Z,19.21
2022-10-24T12:41:56.675Z,19.49
2022-10-24T12:44:24.630Z,19.58
2022-10-24T12:46:51.333Z,19.68
2022-10-24T12:49:23.112Z,19.74
2022-10-24T12:51:52.372Z,19.71
2022-10-24T12:54:19.418Z,19.71
2022-10-24T12:56:49.077Z,19.64
2022-10-24T12:59:27.872Z,19.61
2022-10-24T13:02:28.247Z,19.72
2022-10-24T13:05:10.791Z,19.77
2022-10-24T13:07:51.115Z,19.77
2022-10-24T13:10:36.696Z,19.67
2022-10-24T13:13:22.392Z,19.47
2022-10-24T13:15:49.411Z,19.65
2022-10-24T13:18:32.422Z,19.76
2022-10-24T13:21:18.955Z,19.91
2022-10-24T13:23:46.764Z,19.77
2022-10-24T13:26:32.337Z,19.84
2022-10-24T13:28:59.695Z,19.85
2022-10-24T13:31:26.645Z,19.75
2022-10-24T13:33:54.641Z,19.16
2022-10-24T13:36:28.740Z,19.07
2022-10-24T13:38:56.377Z,19.38
2022-10-24T13:41:31.706Z,19.44
2022-10-24T13:44:03.474Z,19.48
2022-10-24T13:46:32.635Z,19.47
2022-10-24T13:48:59.391Z,19.50
2022-10-24T13:51:42.746Z,19.66
2022-10-24T13:54:26.735Z,19.34
2022-10-24T13:56:57.068Z,18.83
2022-10-24T13:59:30.465Z,19.16
2022-10-24T14:01:57.988Z,19.38
2022-10-24T14:04:25.509Z,19.55
2022-10-24T14:06:52.226Z,19.74
2022-10-24T14:09:18.887Z,19.70
2022-10-24T14:11:46.194Z,19.61
2022-10-24T14:14:33.300Z,19.59
2022-10-24T14:17:07.551Z,19.61
2022-10-24T14:19:38.100Z,19.28
2022-10-24T14:22:16.413Z,19.60
2022-10-24T14:24:43.746Z,19.48
2022-10-24T14:27:11.076Z,19.61
2022-10-24T14:29:37.799Z,19.37
2022-10-24T14:32:07.919Z,19.61
2022-10-24T14:34:36.412Z,19.61
2022-10-24T14:37:05.366Z,19.65
2022-10-24T14:39:32.056Z,19.68
2022-10-24T14:42:01.519Z,19.70
2022-10-24T14:44:28.180Z,19.68
2022-10-24T14:47:05.170Z,19.44
2022-10-24T14:49:33.915Z,19.28
2022-10-24T14:52:01.227Z,19.40
2022-10-24T14:54:32.246Z,19.62
2022-10-24T14:57:00.748Z,19.62
2022-10-24T14:59:38.045Z,19.67
2022-10-24T15:02:06.659Z,19.66
2022-10-24T15:04:38.608Z,19.65
2022-10-24T15:07:24.415Z,19.80
2022-10-24T15:10:00.504Z,19.79
2022-10-24T15:12:31.190Z,19.80
2022-10-24T15:15:21.537Z,19.57
2022-10-24T15:17:50.368Z,19.47
2022-10-24T15:20:18.457Z,19.69
2022-10-24T15:22:49.365Z,19.67
2022-10-24T15:25:18.763Z,19.82
2022-10-24T15:27:46.394Z,19.79
2022-10-24T15:30:14.116Z,19.83
2022-10-24T15:32:41.036Z,19.70
2022-10-24T15:35:07.820Z,19.74
2022-10-24T15:37:35.328Z,19.78
2022-10-24T15:40:03.973Z,19.66
2022-10-24T15:42:31.027Z,19.74
2022-10-24T15:44:57.747Z,19.70
2022-10-24T15:47:25.091Z,19.69
2022-10-24T15:49:52.271Z,19.70
2022-10-24T15:52:19.157Z,19.66
2022-10-24T15:54:46.229Z,19.79
2022-10-24T15:57:13.458Z,19.67
2022-10-24T15:59:40.117Z,19.64
2022-10-24T16:02:09.585Z,19.70
2022-10-24T16:04:40.247Z,19.63
2022-10-24T16:07:06.958Z,19.65
2022-10-24T16:09:33.606Z,19.60
2022-10-24T16:12:00.779Z,19.70
2022-10-24T16:14:27.934Z,19.64
2022-10-24T16:16:57.498Z,19.71
2022-10-24T16:19:26.463Z,19.81
2022-10-24T16:21:54.625Z,19.71
2022-10-24T16:24:21.353Z,19.67
2022-10-24T16:26:48.692Z,19.67
2022-10-24T16:29:15.685Z,19.54
2022-10-24T16:31:43.878Z,19.64
2022-10-24T16:34:11.050Z,19.57
2022-10-24T16:36:41.188Z,19.68
2022-10-24T16:39:09.136Z,19.45
2022-10-24T16:41:38.182Z,19.54
2022-10-24T16:44:05.973Z,19.49
2022-10-24T16:46:33.758Z,19.65
2022-10-24T16:49:00.967Z,19.45
2022-10-24T16:51:32.354Z,19.68
2022-10-24T16:54:01.125Z,19.65
2022-10-24T16:56:28.931Z,19.50
2022-10-24T16:58:57.078Z,19.54
2022-10-24T17:01:23.962Z,19.62
2022-10-24T17:03:50.945Z,19.43
2022-10-24T17:06:17.763Z,19.55
2022-10-24T17:08:45.017Z,19.57
2022-10-24T17:11:39.385Z,19.56
2022-10-24T17:13:59.552Z,19.48
2022-10-24T17:16:26.699Z,19.55
2022-10-24T17:19:05.675Z,19.59
2022-10-24T17:21:42.740Z,19.48
2022-10-24T17:24:12.050Z,19.53
2022-10-24T17:26:39.509Z,19.46
2022-10-24T17:29:08.608Z,19.49
2022-10-24T17:31:35.809Z,19.45
2022-10-24T17:34:03.095Z,19.54
2022-10-24T17:36:30.783Z,19.45
2022-10-24T17:39:00.089Z,19.47
2022-10-24T17:41:34.755Z,19.54
2022-10-24T17:44:02.522Z,19.35
2022-10-24T17:46:29.950Z,19.28
2022-10-24T17:48:58.368Z,19.40
2022-10-24T17:51:26.673Z,19.41
2022-10-24T17:53:54.395Z,19.42
2022-10-24T17:56:24.856Z,19.32
2022-10-24T17:58:54.572Z,19.24
2022-10-24T18:01:25.599Z,19.14
2022-10-24T18:03:53.136Z,19.03
2022-10-24T18:06:19.899Z,19.04
2022-10-24T18:08:49.149Z,18.99
2022-10-24T18:11:16.707Z,18.84
2022-10-24T18:13:43.770Z,18.82
2022-10-24T18:16:11.526Z,18.90
2022-10-24T18:18:40.081Z,18.86
2022-10-24T18:21:10.929Z,18.67
2022-10-24T18:23:38.890Z,18.53
2022-10-24T18:26:09.975Z,18.48
2022-10-24T18:28:40.953Z,18.32
2022-10-24T18:31:11.104Z,18.30
2022-10-24T18:33:38.140Z,18.37
2022-10-24T18:36:15.721Z,18.31
2022-10-24T18:38:44.836Z,18.33
2022-10-24T18:41:23.821Z,18.20
2022-10-24T18:43:51.185Z,18.20
2022-10-24T18:46:18.862Z,18.09
2022-10-24T18:48:48.692Z,18.03
2022-10-24T18:51:25.990Z,18.25
2022-10-24T18:53:53.186Z,17.96
2022-10-24T18:56:20.888Z,17.89
2022-10-24T18:58:49.704Z,18.06
2022-10-24T19:01:23.182Z,18.17
2022-10-24T19:03:50.734Z,18.06
2022-10-24T19:06:30.749Z,18.06
2022-10-24T19:08:58.208Z,18.11
2022-10-24T19:11:25.501Z,18.01
2022-10-24T19:13:52.702Z,17.97
2022-10-24T19:16:21.606Z,18.12
2022-10-24T19:18:54.371Z,18.12
2022-10-24T19:21:27.097Z,17.90
2022-10-24T19:23:57.320Z,18.15
2022-10-24T19:26:25.316Z,18.10
2022-10-24T19:28:52.757Z,18.20
2022-10-24T19:31:19.967Z,18.07
2022-10-24T19:33:47.452Z,18.16
2022-10-24T19:36:19.362Z,18.02
2022-10-24T19:38:46.412Z,18.02
2022-10-24T19:41:14.730Z,18.01
2022-10-24T19:43:44.984Z,18.04
2022-10-24T19:46:19.687Z,18.01
2022-10-24T19:48:50.897Z,18.00
2022-10-24T19:51:18.395Z,18.08
2022-10-24T19:53:45.845Z,18.05
2022-10-24T19:56:25.427Z,18.03
2022-10-24T19:58:52.724Z,17.88
2022-10-24T20:01:22.349Z,17.86
2022-10-24T20:03:51.530Z,18.20
2022-10-24T20:06:19.390Z,17.92
2022-10-24T20:08:47.074Z,17.96
2022-10-24T20:11:16.454Z,18.00
2022-10-24T20:13:46.656Z,17.85
2022-10-24T20:16:13.949Z,17.87
2022-10-24T20:18:43.693Z,17.79
2022-10-24T20:21:13.971Z,17.79
2022-10-24T20:23:41.763Z,17.83
2022-10-24T20:26:09.959Z,17.95
2022-10-24T20:28:37.809Z,17.93
2022-10-24T20:31:06.207Z,17.94
2022-10-24T20:33:34.199Z,17.82
2022-10-24T20:36:04.591Z,17.96
2022-10-24T20:38:32.687Z,17.87
2022-10-24T20:41:03.128Z,17.89
2022-10-24T20:43:29.939Z,17.99
2022-10-24T20:46:01.634Z,17.94
2022-10-24T20:48:28.943Z,18.05
2022-10-24T20:51:03.195Z,18.08
2022-10-24T20:53:30.856Z,17.90
2022-10-24T20:55:57.702Z,18.01
2022-10-24T20:58:28.987Z,18.03
2022-10-24T21:00:56.184Z,17.92
2022-10-24T21:03:23.826Z,17.84
2022-10-24T21:05:50.680Z,17.19
2022-10-24T21:08:19.053Z,17.64
2022-10-24T21:10:45.898Z,17.91
2022-10-24T21:13:12.657Z,17.99
2022-10-24T21:15:39.737Z,18.13
2022-10-24T21:18:06.502Z,18.13
2022-10-24T21:20:33.148Z,18.23
2022-10-24T21:23:00.185Z,18.27
2022-10-24T21:25:26.846Z,18.28
2022-10-24T21:27:53.486Z,18.23
2022-10-24T21:30:20.421Z,18.31
2022-10-24T21:32:47.125Z,18.35
2022-10-24T21:35:13.871Z,18.26
2022-10-24T21:37:40.792Z,18.28
2022-10-24T21:40:07.588Z,18.30
2022-10-24T21:42:34.703Z,18.34
2022-10-24T21:45:01.640Z,18.23
2022-10-24T21:47:28.319Z,18.19
2022-10-24T21:49:54.990Z,18.21
2022-10-24T21:52:22.028Z,18.21
2022-10-24T21:54:48.714Z,18.32
2022-10-24T21:57:15.339Z,18.16
2022-10-24T21:59:42.217Z,18.13
2022-10-24T22:02:09.370Z,18.18
2022-10-24T22:04:36.389Z,18.25
2022-10-24T22:07:03.121Z,18.25
2022-10-24T22:09:29.823Z,18.26
2022-10-24T22:11:58.078Z,18.11
2022-10-24T22:14:25.161Z,18.32
2022-10-24T22:16:51.891Z,18.37
2022-10-24T22:19:18.936Z,18.47
2022-10-24T22:21:46.482Z,18.20
2022-10-24T22:24:23.131Z,18.22
2022-10-24T22:26:50.302Z,18.25
2022-10-24T22:29:18.107Z,18.34
2022-10-24T22:31:45.082Z,18.28
2022-10-24T22:34:16.175Z,18.36
2022-10-24T22:36:43.272Z,18.34
2022-10-24T22:39:20.111Z,18.29
2022-10-24T22:41:47.275Z,18.36
2022-10-24T22:44:15.628Z,18.27
2022-10-24T22:46:53.628Z,18.24
2022-10-24T22:49:27.902Z,18.30
2022-10-24T22:51:54.807Z,18.32
2022-10-24T22:54:22.519Z,18.36
2022-10-24T22:56:49.350Z,18.26
2022-10-24T22:59:16.173Z,18.40
2022-10-24T23:01:49.094Z,18.37
2022-10-24T23:04:20.067Z,18.26
2022-10-24T23:06:49.053Z,18.43
2022-10-24T23:09:15.713Z,18.50
2022-10-24T23:11:42.532Z,18.40
2022-10-24T23:14:10.124Z,18.32
2022-10-24T23:16:43.037Z,18.28
2022-10-24T23:19:20.600Z,18.20
2022-10-24T23:21:49.083Z,18.32
2022-10-24T23:24:16.629Z,18.39
2022-10-24T23:26:46.979Z,18.34
2022-10-24T23:29:13.597Z,18.39
2022-10-24T23:31:40.626Z,18.41
2022-10-24T23:34:08.922Z,18.41
2022-10-24T23:36:35.748Z,18.37
2022-10-24T23:39:02.894Z,18.34
2022-10-24T23:41:29.597Z,18.43
2022-10-24T23:43:56.530Z,18.46
2022-10-24T23:46:27.738Z,18.41
2022-10-24T23:48:54.430Z,18.27
2022-10-24T23:51:25.444Z,18.26
2022-10-24T23:53:53.277Z,18.38
2022-10-24T23:56:21.221Z,18.39
2022-10-24T23:58:48.123Z,18.29
